createdAt,value
2023-04-08T00:00:31.922Z,4.7383
2023-04-08T00:01:34.224Z,4.7245
2023-04-08T00:02:36.649Z,4.7315
2023-04-08T00:03:37.503Z,4.7221
2023-04-08T00:04:37.985Z,4.7134
2023-04-08T00:05:38.424Z,4.7233
2023-04-08T00:06:40.675Z,4.7326
2023-04-08T00:07:42.964Z,4.7534
2023-04-08T00:08:45.235Z,4.7776
2023-04-08T00:09:47.460Z,4.7811
2023-04-08T00:10:49.886Z,4.7676
2023-04-08T00:11:50.884Z,4.7645
2023-04-08T00:12:53.223Z,4.7720
2023-04-08T00:13:55.591Z,4.7824
2023-04-08T00:14:57.903Z,4.7751
2023-04-08T00:16:00.265Z,4.7555
2023-04-08T00:17:02.552Z,4.7420
2023-04-08T00:18:03.758Z,4.7353
2023-04-08T00:19:06.090Z,4.7332
2023-04-08T00:20:08.443Z,4.7203
2023-04-08T00:21:10.713Z,4.7276
2023-04-08T00:22:13.045Z,4.7318
2023-04-08T00:23:15.320Z,4.7583
2023-04-08T00:24:17.581Z,4.7717
2023-04-08T00:25:19.925Z,4.7793
2023-04-08T00:26:22.181Z,4.7906
2023-04-08T00:27:24.446Z,4.7878
2023-04-08T00:28:26.695Z,4.7987
2023-04-08T00:29:28.939Z,4.7976
2023-04-08T00:30:31.388Z,4.8106
2023-04-08T00:31:33.712Z,4.8143
2023-04-08T00:32:36.029Z,4.8318
2023-04-08T00:33:38.287Z,4.8156
2023-04-08T00:34:40.562Z,4.7994
2023-04-08T00:35:42.827Z,4.7890
2023-04-08T00:36:45.064Z,4.7514
2023-04-08T00:37:47.380Z,4.7200
2023-04-08T00:38:49.840Z,4.7034
2023-04-08T00:39:50.585Z,4.6753
2023-04-08T00:40:52.882Z,4.6339
2023-04-08T00:41:55.282Z,4.6173
2023-04-08T00:42:57.587Z,4.6208
2023-04-08T00:43:59.913Z,4.6217
2023-04-08T00:45:02.186Z,4.6419
2023-04-08T00:46:04.487Z,4.6426
2023-04-08T00:47:06.747Z,4.6631
2023-04-08T00:48:09.065Z,4.6863
2023-04-08T00:49:11.417Z,4.7032
2023-04-08T00:50:13.725Z,4.7234
2023-04-08T00:51:16.074Z,4.7246
2023-04-08T00:52:18.414Z,4.7417
2023-04-08T00:53:20.808Z,4.7573
2023-04-08T00:54:23.241Z,4.7723
2023-04-08T00:55:25.621Z,4.7712
2023-04-08T00:56:27.963Z,4.7804
2023-04-08T00:57:30.332Z,4.7944
2023-04-08T00:58:32.682Z,4.8147
2023-04-08T00:59:34.948Z,4.8028
2023-04-08T01:00:37.266Z,4.7589
2023-04-08T01:01:39.668Z,4.7434
2023-04-08T01:02:40.197Z,4.7317
2023-04-08T01:03:40.841Z,4.7205
2023-04-08T01:04:41.145Z,4.7441
2023-04-08T01:05:43.457Z,4.7556
2023-04-08T01:06:45.810Z,4.7613
2023-04-08T01:07:48.166Z,4.7415
2023-04-08T01:08:50.683Z,4.7478
2023-04-08T01:09:51.392Z,4.7349
2023-04-08T01:10:53.705Z,4.7475
2023-04-08T01:11:56.098Z,4.7355
2023-04-08T01:12:58.575Z,4.7574
2023-04-08T01:13:58.625Z,4.7673
2023-04-08T01:15:00.950Z,4.7709
2023-04-08T01:16:03.381Z,4.7730
2023-04-08T01:17:05.755Z,4.8051
2023-04-08T01:18:08.074Z,4.8281
2023-04-08T01:19:10.487Z,4.8369
2023-04-08T01:20:12.948Z,4.8457
2023-04-08T01:21:15.221Z,4.8600
2023-04-08T01:22:17.624Z,4.8540
2023-04-08T01:23:19.977Z,4.8722
2023-04-08T01:24:22.319Z,4.8771
2023-04-08T01:25:24.715Z,4.8654
2023-04-08T01:26:27.090Z,4.8379
2023-04-08T01:27:29.365Z,4.8463
2023-04-08T01:28:31.754Z,4.8683
2023-04-08T01:29:34.073Z,4.8781
2023-04-08T01:30:36.367Z,4.8702
2023-04-08T01:31:38.743Z,4.8771
2023-04-08T01:32:39.007Z,4.9033
2023-04-08T01:33:41.356Z,4.9290
2023-04-08T01:34:43.714Z,4.9412
2023-04-08T01:35:46.073Z,4.9647
2023-04-08T01:36:46.302Z,4.9856
2023-04-08T01:37:48.656Z,5.0025
2023-04-08T01:38:51.265Z,5.0079
2023-04-08T01:39:51.786Z,5.0000
2023-04-08T01:40:54.138Z,5.0091
2023-04-08T01:41:56.482Z,5.0218
2023-04-08T01:42:58.772Z,4.9886
2023-04-08T01:44:01.155Z,4.9820
2023-04-08T01:45:03.453Z,4.9688
2023-04-08T01:46:05.751Z,4.9684
2023-04-08T01:47:08.192Z,4.9316
2023-04-08T01:48:08.276Z,4.8746
2023-04-08T01:49:10.700Z,4.8281
2023-04-08T01:50:11.741Z,4.8014
2023-04-08T01:51:14.066Z,4.8109
2023-04-08T01:52:16.395Z,4.8581
2023-04-08T01:53:18.774Z,4.8339
2023-04-08T01:54:21.111Z,4.8352
2023-04-08T01:55:23.418Z,4.8400
2023-04-08T01:56:25.755Z,4.8400
2023-04-08T01:57:28.103Z,4.8405
2023-04-08T01:58:30.480Z,4.8436
2023-04-08T01:59:32.826Z,4.8594
2023-04-08T02:00:35.173Z,4.8629
2023-04-08T02:01:37.653Z,4.8736
2023-04-08T02:02:38.520Z,4.8689
2023-04-08T02:03:39.149Z,4.8716
2023-04-08T02:04:39.467Z,4.8632
2023-04-08T02:05:39.623Z,4.8810
2023-04-08T02:06:39.911Z,4.9036
2023-04-08T02:07:42.275Z,4.9042
2023-04-08T02:08:44.639Z,4.9081
2023-04-08T02:09:47.000Z,4.9304
2023-04-08T02:10:49.362Z,4.8972
2023-04-08T02:11:51.783Z,4.8966
2023-04-08T02:12:54.125Z,4.8936
2023-04-08T02:13:56.460Z,4.8847
2023-04-08T02:14:58.775Z,4.8887
2023-04-08T02:16:01.117Z,4.8543
2023-04-08T02:17:01.307Z,4.8681
2023-04-08T02:18:03.707Z,4.8581
2023-04-08T02:19:03.876Z,4.8618
2023-04-08T02:20:06.163Z,4.8651
2023-04-08T02:21:08.481Z,4.8504
2023-04-08T02:22:11.064Z,4.8641
2023-04-08T02:23:13.400Z,4.8822
2023-04-08T02:24:15.757Z,4.9059
2023-04-08T02:25:18.077Z,4.9310
2023-04-08T02:26:20.375Z,4.9352
2023-04-08T02:27:22.818Z,4.9614
2023-04-08T02:28:25.209Z,4.9870
2023-04-08T02:29:27.579Z,5.0131
2023-04-08T02:30:30.003Z,5.0341
2023-04-08T02:31:32.346Z,5.0516
2023-04-08T02:32:34.688Z,5.0619
2023-04-08T02:33:37.040Z,5.0689
2023-04-08T02:34:39.417Z,5.0558
2023-04-08T02:35:41.805Z,5.0679
2023-04-08T02:36:44.121Z,5.0526
2023-04-08T02:37:46.455Z,5.0291
2023-04-08T02:38:49.159Z,5.0219
2023-04-08T02:39:49.739Z,5.0264
2023-04-08T02:40:52.045Z,5.0063
2023-04-08T02:41:54.389Z,4.9986
2023-04-08T02:42:56.731Z,5.0272
2023-04-08T02:43:59.094Z,5.0238
2023-04-08T02:45:01.494Z,5.0069
2023-04-08T02:46:04.075Z,4.9759
2023-04-08T02:47:04.605Z,4.9795
2023-04-08T02:48:06.981Z,4.9861
2023-04-08T02:49:09.328Z,4.9800
2023-04-08T02:50:11.679Z,4.9964
2023-04-08T02:51:13.979Z,4.9657
2023-04-08T02:52:16.303Z,4.9957
2023-04-08T02:53:18.630Z,5.0136
2023-04-08T02:54:21.077Z,5.0066
2023-04-08T02:55:21.196Z,5.0008
2023-04-08T02:56:21.340Z,4.9782
2023-04-08T02:57:23.708Z,4.9661
2023-04-08T02:58:26.126Z,4.9464
2023-04-08T02:59:28.473Z,4.9578
2023-04-08T03:00:30.811Z,4.9785
2023-04-08T03:01:33.230Z,5.0120
2023-04-08T03:02:33.858Z,5.0514
2023-04-08T03:03:34.223Z,5.0883
2023-04-08T03:04:34.543Z,5.0982
2023-04-08T03:05:36.815Z,5.1384
2023-04-08T03:06:39.124Z,5.1686
2023-04-08T03:07:41.463Z,5.1842
2023-04-08T03:08:43.816Z,5.1673
2023-04-08T03:09:46.117Z,5.1618
2023-04-08T03:10:48.411Z,5.0514
2023-04-08T03:11:50.740Z,5.0112
2023-04-08T03:12:53.020Z,4.9555
2023-04-08T03:13:55.489Z,4.9235
2023-04-08T03:14:57.792Z,4.8763
2023-04-08T03:16:00.123Z,4.8604
2023-04-08T03:17:02.528Z,4.8403
2023-04-08T03:18:02.995Z,4.8051
2023-04-08T03:19:05.374Z,4.8071
2023-04-08T03:20:07.787Z,4.7605
2023-04-08T03:21:10.201Z,4.7370
2023-04-08T03:22:12.574Z,4.7153
2023-04-08T03:23:14.999Z,4.7034
2023-04-08T03:24:17.372Z,4.7018
2023-04-08T03:25:19.772Z,4.7049
2023-04-08T03:26:22.089Z,4.7033
2023-04-08T03:27:24.409Z,4.7222
2023-04-08T03:28:26.799Z,4.6992
2023-04-08T03:29:27.145Z,4.7124
2023-04-08T03:30:27.390Z,4.7207
2023-04-08T03:31:29.873Z,4.7228
2023-04-08T03:32:32.305Z,4.7284
2023-04-08T03:33:34.639Z,4.7220
2023-04-08T03:34:37.032Z,4.7475
2023-04-08T03:35:39.423Z,4.7675
2023-04-08T03:36:41.777Z,4.7630
2023-04-08T03:37:44.072Z,4.7868
2023-04-08T03:38:46.479Z,4.7773
2023-04-08T03:39:48.795Z,4.7862
2023-04-08T03:40:51.114Z,4.7922
2023-04-08T03:41:53.503Z,4.7621
2023-04-08T03:42:55.846Z,4.7602
2023-04-08T03:43:58.271Z,4.7607
2023-04-08T03:45:00.611Z,4.7501
2023-04-08T03:46:03.003Z,4.7715
2023-04-08T03:47:05.337Z,4.7670
2023-04-08T03:48:07.768Z,4.7238
2023-04-08T03:49:08.103Z,4.6846
2023-04-08T03:50:10.448Z,4.6996
2023-04-08T03:51:12.849Z,4.6766
2023-04-08T03:52:15.215Z,4.6445
2023-04-08T03:53:17.621Z,4.6792
2023-04-08T03:54:20.064Z,4.6993
2023-04-08T03:55:22.434Z,4.7230
2023-04-08T03:56:24.847Z,4.7133
2023-04-08T03:57:27.159Z,4.7522
2023-04-08T03:58:29.462Z,4.7284
2023-04-08T03:59:31.861Z,4.7125
2023-04-08T04:00:34.176Z,4.6971
2023-04-08T04:01:36.512Z,4.6670
2023-04-08T04:02:39.140Z,4.6851
2023-04-08T04:03:39.903Z,4.6965
2023-04-08T04:04:40.180Z,4.6870
2023-04-08T04:05:42.562Z,4.6762
2023-04-08T04:06:44.885Z,4.6679
2023-04-08T04:07:47.250Z,4.6727
2023-04-08T04:08:49.666Z,4.6429
2023-04-08T04:09:50.002Z,4.6328
2023-04-08T04:10:52.363Z,4.6290
2023-04-08T04:11:54.696Z,4.6267
2023-04-08T04:12:57.026Z,4.6168
2023-04-08T04:13:59.333Z,4.6550
2023-04-08T04:15:01.720Z,4.6661
2023-04-08T04:16:04.112Z,4.6791
2023-04-08T04:17:06.501Z,4.6656
2023-04-08T04:18:08.997Z,4.6555
2023-04-08T04:19:09.638Z,4.6810
2023-04-08T04:20:11.960Z,4.6781
2023-04-08T04:21:14.317Z,4.6965
2023-04-08T04:22:16.675Z,4.6799
2023-04-08T04:23:18.969Z,4.6886
2023-04-08T04:24:21.269Z,4.7317
2023-04-08T04:25:23.606Z,4.7088
2023-04-08T04:26:25.930Z,4.6912
2023-04-08T04:27:28.275Z,4.6854
2023-04-08T04:28:30.583Z,4.6917
2023-04-08T04:29:32.922Z,4.7228
2023-04-08T04:30:35.235Z,4.7128
2023-04-08T04:31:37.786Z,4.7185
2023-04-08T04:32:37.918Z,4.6928
2023-04-08T04:33:40.241Z,4.6970
2023-04-08T04:34:42.611Z,4.7113
2023-04-08T04:35:44.949Z,4.7033
2023-04-08T04:36:47.259Z,4.7154
2023-04-08T04:37:49.581Z,4.7221
2023-04-08T04:38:52.321Z,4.7426
2023-04-08T04:39:53.181Z,4.7531
2023-04-08T04:40:55.510Z,4.7446
2023-04-08T04:41:57.810Z,4.7451
2023-04-08T04:43:00.129Z,4.7294
2023-04-08T04:44:02.459Z,4.7610
2023-04-08T04:45:04.766Z,4.7930
2023-04-08T04:46:07.177Z,4.8026
2023-04-08T04:47:07.284Z,4.7723
2023-04-08T04:48:09.581Z,4.7635
2023-04-08T04:49:11.912Z,4.7442
2023-04-08T04:50:14.241Z,4.7623
2023-04-08T04:51:16.562Z,4.7196
2023-04-08T04:52:18.930Z,4.7222
2023-04-08T04:53:21.270Z,4.7197
2023-04-08T04:54:23.622Z,4.7504
2023-04-08T04:55:25.987Z,4.7375
2023-04-08T04:56:28.234Z,4.7170
2023-04-08T04:57:30.584Z,4.7507
2023-04-08T04:58:31.707Z,4.7001
2023-04-08T04:59:34.074Z,4.6872
2023-04-08T05:00:36.383Z,4.6912
2023-04-08T05:01:38.838Z,4.7166
2023-04-08T05:02:39.120Z,4.7043
2023-04-08T05:03:39.508Z,4.7108
2023-04-08T05:04:41.957Z,4.6808
2023-04-08T05:05:44.379Z,4.6471
2023-04-08T05:06:46.761Z,4.6318
2023-04-08T05:07:49.078Z,4.6666
2023-04-08T05:08:51.628Z,4.6453
2023-04-08T05:09:52.282Z,4.6387
2023-04-08T05:10:54.606Z,4.6569
2023-04-08T05:11:57.006Z,4.5818
2023-04-08T05:12:59.370Z,4.5403
2023-04-08T05:14:01.712Z,4.5664
2023-04-08T05:15:04.041Z,4.6049
2023-04-08T05:16:06.410Z,4.6072
2023-04-08T05:17:08.764Z,4.5712
2023-04-08T05:18:11.101Z,4.5827
2023-04-08T05:19:13.485Z,4.6046
2023-04-08T05:20:17.542Z,4.6258
2023-04-08T05:21:17.843Z,4.6419
2023-04-08T05:22:20.206Z,4.6676
2023-04-08T05:23:22.541Z,4.7185
2023-04-08T05:24:24.871Z,4.7350
2023-04-08T05:25:27.217Z,4.7455
2023-04-08T05:26:29.490Z,4.7468
2023-04-08T05:27:31.857Z,4.7198
2023-04-08T05:28:34.163Z,4.7236
2023-04-08T05:29:35.261Z,4.7172
2023-04-08T05:30:37.623Z,4.7315
2023-04-08T05:31:40.084Z,4.7055
2023-04-08T05:32:42.455Z,4.7204
2023-04-08T05:33:44.917Z,4.7545
2023-04-08T05:34:47.286Z,4.7604
2023-04-08T05:35:49.777Z,4.7666
2023-04-08T05:36:49.938Z,4.7602
2023-04-08T05:37:52.392Z,4.7707
2023-04-08T05:38:54.782Z,4.7484
2023-04-08T05:39:57.183Z,4.7839
2023-04-08T05:40:59.581Z,4.7815
2023-04-08T05:42:02.035Z,4.7930
2023-04-08T05:43:04.407Z,4.8235
2023-04-08T05:44:06.798Z,4.8174
2023-04-08T05:45:09.206Z,4.8187
2023-04-08T05:46:11.606Z,4.8149
2023-04-08T05:47:13.980Z,4.8528
2023-04-08T05:48:16.444Z,4.8399
2023-04-08T05:49:18.805Z,4.8620
2023-04-08T05:50:21.205Z,4.9151
2023-04-08T05:51:23.614Z,4.9437
2023-04-08T05:52:26.006Z,4.9387
2023-04-08T05:53:28.411Z,4.9361
2023-04-08T05:54:30.759Z,4.9620
2023-04-08T05:55:33.140Z,5.0072
2023-04-08T05:56:35.575Z,4.9419
2023-04-08T05:57:35.743Z,4.9916
2023-04-08T05:58:38.220Z,5.0375
2023-04-08T05:59:38.382Z,5.0321
2023-04-08T06:00:40.779Z,5.0408
2023-04-08T06:01:40.966Z,4.9385
2023-04-08T06:02:43.508Z,4.9649
2023-04-08T06:03:44.492Z,4.9674
2023-04-08T06:04:45.214Z,4.9672
2023-04-08T06:05:46.105Z,5.0207
2023-04-08T06:06:48.462Z,5.0542
2023-04-08T06:07:50.877Z,5.1025
2023-04-08T06:08:53.331Z,5.1062
2023-04-08T06:09:55.656Z,5.1013
2023-04-08T06:10:58.093Z,5.0789
2023-04-08T06:11:58.254Z,5.0953
2023-04-08T06:13:00.686Z,5.1129
2023-04-08T06:14:03.095Z,5.1314
2023-04-08T06:15:05.586Z,5.1609
2023-04-08T06:16:05.832Z,5.1772
2023-04-08T06:17:06.026Z,5.1831
2023-04-08T06:18:08.232Z,5.1496
2023-04-08T06:19:08.792Z,5.1619
2023-04-08T06:20:09.139Z,5.2106
2023-04-08T06:21:11.615Z,5.2391
2023-04-08T06:22:11.775Z,5.3163
2023-04-08T06:23:12.896Z,5.3640
2023-04-08T06:24:15.225Z,5.3094
2023-04-08T06:25:17.698Z,5.1724
2023-04-08T06:26:20.045Z,5.2204
2023-04-08T06:27:22.437Z,5.2905
2023-04-08T06:28:24.833Z,5.3319
2023-04-08T06:29:27.233Z,5.3408
2023-04-08T06:30:29.655Z,5.3816
2023-04-08T06:31:32.053Z,5.3719
2023-04-08T06:32:34.531Z,5.3727
2023-04-08T06:33:36.869Z,5.4257
2023-04-08T06:34:39.263Z,5.3898
2023-04-08T06:35:41.732Z,5.4290
2023-04-08T06:36:41.901Z,5.4068
2023-04-08T06:37:42.264Z,5.4535
2023-04-08T06:38:44.622Z,5.5095
2023-04-08T06:39:46.992Z,5.5005
2023-04-08T06:40:49.450Z,5.4539
2023-04-08T06:41:49.582Z,5.4244
2023-04-08T06:42:51.998Z,5.4170
2023-04-08T06:43:52.253Z,5.3962
2023-04-08T06:44:52.387Z,5.4382
2023-04-08T06:45:54.769Z,5.4505
2023-04-08T06:46:57.209Z,5.4305
2023-04-08T06:47:59.649Z,5.4722
2023-04-08T06:48:59.827Z,5.4872
2023-04-08T06:50:02.224Z,5.5197
2023-04-08T06:51:04.702Z,5.5499
2023-04-08T06:52:04.886Z,5.5483
2023-04-08T06:53:07.309Z,5.6185
2023-04-08T06:54:09.725Z,5.6810
2023-04-08T06:55:12.126Z,5.6610
2023-04-08T06:56:14.537Z,5.5753
2023-04-08T06:57:14.631Z,5.5838
2023-04-08T06:58:17.001Z,5.6511
2023-04-08T06:59:19.417Z,5.6334
2023-04-08T07:00:21.797Z,5.6610
2023-04-08T07:01:24.324Z,5.7567
2023-04-08T07:02:24.549Z,5.7473
2023-04-08T07:03:25.223Z,5.7693
2023-04-08T07:04:25.494Z,5.6674
2023-04-08T07:05:25.734Z,5.8256
2023-04-08T07:06:25.866Z,5.7445
2023-04-08T07:07:28.268Z,5.7750
2023-04-08T07:08:30.661Z,5.8147
2023-04-08T07:09:32.972Z,5.7887
2023-04-08T07:10:35.371Z,5.8349
2023-04-08T07:11:37.778Z,5.8445
2023-04-08T07:12:38.021Z,5.8983
2023-04-08T07:13:40.373Z,5.8214
2023-04-08T07:14:42.812Z,5.8438
2023-04-08T07:15:43.909Z,5.8955
2023-04-08T07:16:46.331Z,5.8406
2023-04-08T07:17:46.619Z,5.9252
2023-04-08T07:18:46.744Z,5.9401
2023-04-08T07:19:49.089Z,5.9510
2023-04-08T07:20:51.505Z,5.9073
2023-04-08T07:21:53.884Z,5.8744
2023-04-08T07:22:54.002Z,5.9639
2023-04-08T07:23:56.408Z,6.0310
2023-04-08T07:24:58.739Z,5.9650
2023-04-08T07:26:01.100Z,5.9881
2023-04-08T07:27:03.500Z,6.0309
2023-04-08T07:28:03.655Z,6.0799
2023-04-08T07:29:03.802Z,6.0066
2023-04-08T07:30:06.212Z,6.0144
2023-04-08T07:31:08.615Z,5.9873
2023-04-08T07:32:08.779Z,6.0557
2023-04-08T07:33:11.263Z,6.1894
2023-04-08T07:34:11.357Z,6.2404
2023-04-08T07:35:13.707Z,6.2329
2023-04-08T07:36:16.103Z,6.3027
2023-04-08T07:37:18.464Z,6.2950
2023-04-08T07:38:18.676Z,6.3254
2023-04-08T07:39:20.972Z,6.1463
2023-04-08T07:40:23.414Z,6.0553
2023-04-08T07:41:25.837Z,6.1612
2023-04-08T07:42:27.001Z,6.1612
2023-04-08T07:43:27.128Z,6.1256
2023-04-08T07:44:29.483Z,6.1488
2023-04-08T07:45:31.893Z,6.1335
2023-04-08T07:46:34.366Z,6.1782
2023-04-08T07:47:34.716Z,6.1933
2023-04-08T07:48:37.068Z,6.1714
2023-04-08T07:49:39.507Z,6.2627
2023-04-08T07:51:08.480Z,6.1876
2023-04-08T07:51:42.331Z,6.2298
2023-04-08T07:52:43.460Z,6.1635
2023-04-08T07:53:43.630Z,6.3684
2023-04-08T07:54:46.038Z,6.3747
2023-04-08T07:55:46.334Z,6.5770
2023-04-08T07:56:46.662Z,6.4829
2023-04-08T07:57:47.045Z,6.4667
2023-04-08T07:58:47.438Z,6.4031
2023-04-08T07:59:47.668Z,6.5017
2023-04-08T08:00:50.009Z,6.3500
2023-04-08T08:01:52.409Z,6.3546
2023-04-08T08:02:52.836Z,6.3709
2023-04-08T08:03:53.908Z,6.2943
2023-04-08T08:04:53.533Z,6.2801
2023-04-08T08:05:53.636Z,6.3427
2023-04-08T08:06:55.899Z,6.5150
2023-04-08T08:07:58.281Z,6.4185
2023-04-08T08:09:00.718Z,6.4403
2023-04-08T08:10:00.747Z,6.3944
2023-04-08T08:11:03.139Z,6.4237
2023-04-08T08:12:03.247Z,6.4187
2023-04-08T08:13:05.622Z,6.3659
2023-04-08T08:14:05.844Z,6.4585
2023-04-08T08:15:08.195Z,6.5557
2023-04-08T08:16:08.413Z,6.7422
2023-04-08T08:17:08.972Z,6.6947
2023-04-08T08:18:11.563Z,6.5373
2023-04-08T08:19:11.722Z,6.7018
2023-04-08T08:20:14.112Z,6.8307
2023-04-08T08:21:16.487Z,6.7952
2023-04-08T08:22:18.848Z,6.8403
2023-04-08T08:23:21.130Z,6.9097
2023-04-08T08:24:23.568Z,6.9745
2023-04-08T08:25:26.447Z,7.0306
2023-04-08T08:26:26.736Z,7.0424
2023-04-08T08:27:29.090Z,7.0133
2023-04-08T08:28:31.539Z,6.8413
2023-04-08T08:29:33.883Z,6.8345
2023-04-08T08:30:36.181Z,6.7728
2023-04-08T08:31:38.609Z,6.9760
2023-04-08T08:32:38.702Z,7.3325
2023-04-08T08:33:38.846Z,7.3226
2023-04-08T08:34:41.186Z,7.2608
2023-04-08T08:35:43.527Z,7.1651
2023-04-08T08:36:43.620Z,6.9146
2023-04-08T08:37:46.130Z,6.9867
2023-04-08T08:38:48.476Z,6.9198
2023-04-08T08:39:50.765Z,6.9982
2023-04-08T08:40:53.094Z,7.0489
2023-04-08T08:41:55.434Z,7.1994
2023-04-08T08:42:57.826Z,7.3538
2023-04-08T08:44:00.189Z,7.3864
2023-04-08T08:45:02.520Z,7.2385
2023-04-08T08:46:02.917Z,7.3552
2023-04-08T08:47:05.362Z,7.5085
2023-04-08T08:48:05.408Z,7.5117
2023-04-08T08:49:07.808Z,7.5778
2023-04-08T08:50:10.137Z,7.2605
2023-04-08T08:51:12.628Z,7.1510
2023-04-08T08:52:12.695Z,7.1988
2023-04-08T08:53:15.056Z,7.2680
2023-04-08T08:54:17.402Z,7.1460
2023-04-08T08:55:36.148Z,7.3178
2023-04-08T08:56:20.154Z,7.3748
2023-04-08T08:57:22.543Z,7.4524
2023-04-08T08:58:24.885Z,7.5962
2023-04-08T08:59:27.243Z,7.8722
2023-04-08T09:00:29.622Z,8.0281
2023-04-08T09:01:31.963Z,8.0591
2023-04-08T09:02:32.763Z,8.1461
2023-04-08T09:03:33.958Z,7.9212
2023-04-08T09:04:34.497Z,8.0234
2023-04-08T09:05:35.017Z,7.7198
2023-04-08T09:06:35.655Z,7.7855
2023-04-08T09:07:38.029Z,7.8677
2023-04-08T09:08:40.342Z,7.9820
2023-04-08T09:09:43.520Z,8.0822
2023-04-08T09:10:45.822Z,8.0875
2023-04-08T09:11:48.140Z,8.1958
2023-04-08T09:12:50.515Z,8.2366
2023-04-08T09:13:52.951Z,8.2226
2023-04-08T09:14:53.986Z,8.2062
2023-04-08T09:15:54.106Z,8.2880
2023-04-08T09:16:54.259Z,8.3437
2023-04-08T09:17:54.676Z,8.0499
2023-04-08T09:18:54.751Z,8.1736
2023-04-08T09:19:57.095Z,8.2334
2023-04-08T09:20:57.329Z,7.8102
2023-04-08T09:21:57.345Z,7.7588
2023-04-08T09:22:59.731Z,7.9567
2023-04-08T09:24:02.108Z,8.1803
2023-04-08T09:25:04.402Z,8.2063
2023-04-08T09:26:06.716Z,8.1974
2023-04-08T09:27:09.056Z,8.0855
2023-04-08T09:28:11.385Z,8.0624
2023-04-08T09:29:25.607Z,8.1585
2023-04-08T09:30:14.219Z,7.9305
2023-04-08T09:31:16.609Z,8.2316
2023-04-08T09:32:18.927Z,8.3051
2023-04-08T09:33:21.431Z,8.2278
2023-04-08T09:34:21.483Z,8.1780
2023-04-08T09:35:23.816Z,8.2991
2023-04-08T09:36:26.121Z,8.4573
2023-04-08T09:37:28.443Z,8.5278
2023-04-08T09:38:30.789Z,8.7240
2023-04-08T09:39:33.138Z,8.5153
2023-04-08T09:40:35.459Z,8.1620
2023-04-08T09:41:37.763Z,8.2361
2023-04-08T09:42:40.126Z,8.2769
2023-04-08T09:43:42.504Z,8.1950
2023-04-08T09:44:44.907Z,8.2236
2023-04-08T09:45:44.982Z,8.5149
2023-04-08T09:46:45.070Z,8.6876
2023-04-08T09:47:47.449Z,8.5362
2023-04-08T09:48:49.762Z,8.4597
2023-04-08T09:49:52.083Z,8.3040
2023-04-08T09:50:54.408Z,8.3723
2023-04-08T09:51:56.726Z,8.3740
2023-04-08T09:52:59.106Z,8.1947
2023-04-08T09:54:01.395Z,8.2087
2023-04-08T09:55:03.722Z,8.1543
2023-04-08T09:56:06.075Z,8.2008
2023-04-08T09:57:08.408Z,8.2502
2023-04-08T09:58:10.739Z,8.1957
2023-04-08T09:59:13.068Z,8.1832
2023-04-08T10:00:15.373Z,8.2091
2023-04-08T10:01:17.714Z,8.2860
2023-04-08T10:02:20.134Z,8.3368
2023-04-08T10:03:20.738Z,8.2930
2023-04-08T10:04:21.498Z,8.3181
2023-04-08T10:05:21.773Z,8.3537
2023-04-08T10:06:24.207Z,8.4796
2023-04-08T10:07:26.580Z,8.4978
2023-04-08T10:08:28.978Z,8.3120
2023-04-08T10:09:31.314Z,8.3788
2023-04-08T10:10:33.694Z,8.3352
2023-04-08T10:11:33.863Z,8.3975
2023-04-08T10:12:34.046Z,8.3585
2023-04-08T10:13:34.305Z,8.4142
2023-04-08T10:14:34.378Z,8.4268
2023-04-08T10:15:36.819Z,8.7812
2023-04-08T10:16:39.236Z,8.9325
2023-04-08T10:17:39.462Z,9.0428
2023-04-08T10:18:39.602Z,9.2410
2023-04-08T10:19:42.076Z,9.3509
2023-04-08T10:20:42.202Z,9.3867
2023-04-08T10:21:44.548Z,9.3995
2023-04-08T10:22:46.905Z,9.6306
2023-04-08T10:23:49.405Z,9.7587
2023-04-08T10:24:50.159Z,9.9148
2023-04-08T10:25:52.497Z,9.5828
2023-04-08T10:26:52.687Z,9.4874
2023-04-08T10:27:55.012Z,9.7848
2023-04-08T10:28:57.406Z,10.0216
2023-04-08T10:29:59.753Z,10.0816
2023-04-08T10:31:02.031Z,10.0985
2023-04-08T10:32:04.501Z,9.7865
2023-04-08T10:33:04.605Z,9.7410
2023-04-08T10:34:04.752Z,9.8948
2023-04-08T10:35:04.848Z,9.9275
2023-04-08T10:36:05.019Z,10.2348
2023-04-08T10:37:05.043Z,10.1776
2023-04-08T10:38:07.395Z,10.3626
2023-04-08T10:39:07.466Z,10.2675
2023-04-08T10:40:09.799Z,10.1442
2023-04-08T10:41:12.149Z,10.2449
2023-04-08T10:42:12.244Z,10.3205
2023-04-08T10:43:12.323Z,10.2304
2023-04-08T10:44:14.635Z,10.2777
2023-04-08T10:45:17.014Z,10.0576
2023-04-08T10:46:17.160Z,10.1996
2023-04-08T10:47:17.468Z,10.2169
2023-04-08T10:48:19.751Z,9.8759
2023-04-08T10:49:22.178Z,9.6152
2023-04-08T10:50:24.521Z,9.7157
2023-04-08T10:51:24.621Z,9.9508
2023-04-08T10:52:27.007Z,9.8383
2023-04-08T10:53:27.161Z,9.8261
2023-04-08T10:54:29.508Z,9.8607
2023-04-08T10:55:31.799Z,9.6345
2023-04-08T10:56:34.165Z,9.6315
2023-04-08T10:57:36.483Z,9.4975
2023-04-08T10:58:38.844Z,9.6058
2023-04-08T10:59:41.203Z,9.7420
2023-04-08T11:00:43.544Z,9.7323
2023-04-08T11:01:45.998Z,9.8144
2023-04-08T11:02:46.325Z,9.9495
2023-04-08T11:03:46.953Z,10.0140
2023-04-08T11:04:47.583Z,9.9602
2023-04-08T11:05:49.960Z,10.0753
2023-04-08T11:06:52.246Z,10.2852
2023-04-08T11:07:52.412Z,10.5512
2023-04-08T11:08:54.755Z,10.6580
2023-04-08T11:09:54.836Z,10.6270
2023-04-08T11:10:57.169Z,10.6139
2023-04-08T11:11:59.510Z,10.1331
2023-04-08T11:13:01.969Z,10.0440
2023-04-08T11:14:02.014Z,10.2832
2023-04-08T11:15:04.338Z,10.3398
2023-04-08T11:16:17.251Z,10.2629
2023-04-08T11:17:07.066Z,10.3044
2023-04-08T11:18:07.194Z,10.2967
2023-04-08T11:19:07.450Z,10.8725
2023-04-08T11:20:07.519Z,10.7526
2023-04-08T11:21:07.617Z,10.3824
2023-04-08T11:22:07.774Z,10.4683
2023-04-08T11:23:07.818Z,10.2245
2023-04-08T11:24:10.114Z,10.0037
2023-04-08T11:25:10.273Z,10.1861
2023-04-08T11:26:10.264Z,10.1476
2023-04-08T11:27:10.324Z,10.1703
2023-04-08T11:28:12.731Z,10.4250
2023-04-08T11:29:15.038Z,10.8235
2023-04-08T11:30:15.122Z,10.9820
2023-04-08T11:31:15.205Z,11.1082
2023-04-08T11:32:15.489Z,11.1135
2023-04-08T11:33:15.569Z,10.8262
2023-04-08T11:34:17.814Z,10.4981
2023-04-08T11:35:20.152Z,10.5255
2023-04-08T11:36:22.451Z,10.7313
2023-04-08T11:37:26.574Z,11.0953
2023-04-08T11:38:27.257Z,11.2103
2023-04-08T11:39:29.642Z,11.1040
2023-04-08T11:40:29.683Z,11.3413
2023-04-08T11:41:32.003Z,11.4470
2023-04-08T11:42:32.103Z,11.1582
2023-04-08T11:43:32.153Z,11.4494
2023-04-08T11:44:32.205Z,11.5218
2023-04-08T11:45:32.225Z,11.4032
2023-04-08T11:46:34.539Z,11.1111
2023-04-08T11:47:34.965Z,11.6547
2023-04-08T11:48:35.219Z,11.6147
2023-04-08T11:49:35.234Z,11.4750
2023-04-08T11:50:35.274Z,11.5929
2023-04-08T11:51:35.351Z,11.3486
2023-04-08T11:52:35.353Z,11.6098
2023-04-08T11:53:37.735Z,11.4423
2023-04-08T11:54:37.705Z,11.5698
2023-04-08T11:55:39.985Z,11.7221
2023-04-08T11:56:42.300Z,12.1293
2023-04-08T11:57:42.257Z,12.4275
2023-04-08T11:58:44.614Z,12.7797
2023-04-08T11:59:44.650Z,13.0050
2023-04-08T12:00:44.694Z,12.7217
2023-04-08T12:01:47.229Z,12.7348
2023-04-08T12:02:47.260Z,12.2866
2023-04-08T12:03:47.453Z,11.9513
2023-04-08T12:04:47.695Z,12.0518
2023-04-08T12:05:49.911Z,12.1770
2023-04-08T12:06:52.173Z,11.9387
2023-04-08T12:07:52.237Z,11.9160
2023-04-08T12:08:52.304Z,11.7325
2023-04-08T12:09:52.282Z,10.9265
2023-04-08T12:10:52.402Z,10.6936
2023-04-08T12:11:52.391Z,10.8229
2023-04-08T12:12:54.681Z,10.9134
2023-04-08T12:13:57.058Z,10.8402
2023-04-08T12:14:57.081Z,10.6011
2023-04-08T12:15:59.507Z,10.6885
2023-04-08T12:16:59.556Z,10.5510
2023-04-08T12:17:59.656Z,10.3250
2023-04-08T12:19:01.998Z,10.4574
2023-04-08T12:20:01.999Z,10.5128
2023-04-08T12:21:04.321Z,10.5592
2023-04-08T12:22:06.690Z,10.4401
2023-04-08T12:23:06.750Z,10.3443
2023-04-08T12:24:09.184Z,10.3138
2023-04-08T12:25:09.274Z,10.3711
2023-04-08T12:26:11.656Z,10.2567
2023-04-08T12:27:11.781Z,10.1427
2023-04-08T12:28:11.874Z,10.1079
2023-04-08T12:29:14.299Z,10.0799
2023-04-08T12:30:15.866Z,10.0388
2023-04-08T12:31:16.715Z,9.8603
2023-04-08T12:32:16.805Z,9.7789
2023-04-08T12:33:16.960Z,9.8228
2023-04-08T12:34:17.026Z,9.8576
2023-04-08T12:35:17.145Z,9.8604
2023-04-08T12:36:17.297Z,9.7981
2023-04-08T12:37:17.386Z,9.8338
2023-04-08T12:38:19.753Z,9.8628
2023-04-08T12:39:19.853Z,9.8655
2023-04-08T12:40:19.967Z,9.8321
2023-04-08T12:41:20.077Z,9.8757
2023-04-08T12:42:20.125Z,9.8988
2023-04-08T12:43:22.444Z,9.7363
2023-04-08T12:44:24.822Z,9.5882
2023-04-08T12:45:24.889Z,9.3953
2023-04-08T12:46:25.030Z,9.4729
2023-04-08T12:47:26.317Z,9.4462